createdAt,value
2022-12-01T00:00:16.294Z,99.90
2022-12-01T00:03:19.694Z,99.90
2022-12-01T00:06:22.315Z,99.90
2022-12-01T00:09:43.085Z,99.90
2022-12-01T00:12:45.551Z,99.90
2022-12-01T00:15:47.722Z,99.90
2022-12-01T00:18:51.383Z,99.90
2022-12-01T00:21:54.615Z,99.90
2022-12-01T00:24:56.712Z,99.90
2022-12-01T00:27:59.060Z,99.90
2022-12-01T00:31:01.151Z,99.90
2022-12-01T00:34:10.983Z,99.90
2022-12-01T00:37:13.734Z,99.90
2022-12-01T00:40:15.775Z,99.90
2022-12-01T00:43:17.801Z,99.90
2022-12-01T00:46:20.306Z,99.90
2022-12-01T00:49:22.466Z,99.90
2022-12-01T00:52:25.480Z,99.90
2022-12-01T00:55:28.973Z,99.90
2022-12-01T00:58:31.187Z,99.90
2022-12-01T01:01:33.371Z,99.90
2022-12-01T01:04:37.012Z,99.90
2022-12-01T01:07:39.379Z,99.90
2022-12-01T01:10:43.608Z,99.90
2022-12-01T01:13:45.637Z,99.90
2022-12-01T01:16:48.731Z,99.90
2022-12-01T01:19:53.048Z,99.90
2022-12-01T01:22:55.022Z,99.90
2022-12-01T01:26:05.516Z,99.90
2022-12-01T01:29:08.045Z,99.90
2022-12-01T01:32:10.092Z,99.90
2022-12-01T01:35:12.227Z,99.90
2022-12-01T01:38:15.316Z,99.90
2022-12-01T01:41:17.998Z,99.90
2022-12-01T01:44:51.062Z,99.90
2022-12-01T01:47:55.647Z,99.90
2022-12-01T01:50:57.778Z,99.90
2022-12-01T01:54:05.895Z,99.90
2022-12-01T01:57:11.682Z,99.90
2022-12-01T02:00:17.163Z,99.90
2022-12-01T02:03:20.640Z,99.90
2022-12-01T02:06:24.710Z,99.90
2022-12-01T02:09:26.837Z,99.90
2022-12-01T02:12:32.059Z,99.90
2022-12-01T02:15:51.491Z,99.90
2022-12-01T02:19:35.600Z,99.90
2022-12-01T02:22:56.429Z,99.90
2022-12-01T02:26:09.728Z,99.90
2022-12-01T02:29:29.818Z,99.90
2022-12-01T02:32:49.237Z,99.90
2022-12-01T02:36:08.492Z,99.90
2022-12-01T02:39:15.725Z,99.90
2022-12-01T02:42:48.651Z,99.90
2022-12-01T02:46:03.652Z,99.90
2022-12-01T02:49:16.381Z,99.90
2022-12-01T02:52:20.007Z,99.90
2022-12-01T02:55:22.143Z,99.90
2022-12-01T02:58:24.493Z,99.90
2022-12-01T03:01:32.884Z,99.90
2022-12-01T03:04:50.161Z,99.90
2022-12-01T03:08:14.439Z,99.90
2022-12-01T03:11:28.252Z,99.90
2022-12-01T03:14:51.813Z,99.90
2022-12-01T03:18:18.899Z,99.90
2022-12-01T03:21:37.500Z,99.90
2022-12-01T03:24:42.436Z,99.90
2022-12-01T03:28:06.674Z,99.90
2022-12-01T03:31:17.375Z,99.90
2022-12-01T03:34:43.821Z,99.90
2022-12-01T03:38:08.450Z,99.90
2022-12-01T03:41:19.318Z,99.90
2022-12-01T03:44:29.698Z,99.90
2022-12-01T03:47:32.649Z,99.90
2022-12-01T03:50:53.664Z,99.90
2022-12-01T03:54:14.968Z,99.90
2022-12-01T03:57:48.006Z,99.90
2022-12-01T04:00:53.498Z,99.90
2022-12-01T04:03:56.040Z,99.90
2022-12-01T04:06:58.210Z,99.90
2022-12-01T04:10:00.164Z,99.90
2022-12-01T04:13:02.155Z,99.90
2022-12-01T04:16:04.318Z,99.90
2022-12-01T04:19:06.627Z,99.90
2022-12-01T04:22:08.651Z,99.90
2022-12-01T04:25:11.703Z,99.90
2022-12-01T04:28:13.735Z,99.90
2022-12-01T04:31:15.839Z,99.90
2022-12-01T04:34:19.024Z,99.90
2022-12-01T04:37:21.074Z,99.90
2022-12-01T04:40:23.102Z,99.90
2022-12-01T04:43:25.221Z,99.90
2022-12-01T04:46:27.256Z,99.90
2022-12-01T04:49:29.607Z,99.90
2022-12-01T04:52:35.281Z,99.90
2022-12-01T04:55:39.251Z,99.90
2022-12-01T04:58:41.662Z,99.90
2022-12-01T05:01:44.801Z,99.90
2022-12-01T05:04:48.300Z,99.90
2022-12-01T05:07:50.362Z,99.90
2022-12-01T05:10:56.256Z,99.90
2022-12-01T05:13:58.774Z,99.90
2022-12-01T05:17:02.011Z,99.90
2022-12-01T05:20:24.519Z,99.90
2022-12-01T05:23:28.330Z,99.90
2022-12-01T05:26:30.332Z,99.90
2022-12-01T05:29:33.132Z,99.90
2022-12-01T05:32:35.196Z,99.90
2022-12-01T05:35:37.654Z,99.90
2022-12-01T05:38:39.676Z,99.90
2022-12-01T05:41:41.641Z,99.90
2022-12-01T05:44:43.696Z,99.90
2022-12-01T05:47:45.912Z,99.90
2022-12-01T05:50:47.938Z,99.90
2022-12-01T05:53:49.935Z,99.90
2022-12-01T05:56:52.078Z,99.90
2022-12-01T05:59:55.364Z,99.90
2022-12-01T06:02:58.425Z,99.90
2022-12-01T06:06:00.912Z,99.90
2022-12-01T06:09:03.280Z,99.90
2022-12-01T06:12:05.443Z,99.90
2022-12-01T06:15:08.732Z,99.90
2022-12-01T06:18:10.940Z,99.90
2022-12-01T06:21:12.931Z,99.90
2022-12-01T06:24:15.005Z,99.90
2022-12-01T06:27:17.495Z,99.90
2022-12-01T06:30:19.533Z,99.90
2022-12-01T06:33:21.651Z,99.90
2022-12-01T06:36:23.924Z,99.90
2022-12-01T06:39:26.028Z,99.90
2022-12-01T06:42:31.740Z,99.90
2022-12-01T06:45:33.871Z,99.90
2022-12-01T06:48:37.430Z,99.90
2022-12-01T06:51:40.066Z,99.90
2022-12-01T06:54:42.150Z,99.90
2022-12-01T06:57:44.616Z,99.90
2022-12-01T07:00:51.902Z,99.90
2022-12-01T07:03:55.227Z,99.90
2022-12-01T07:06:57.283Z,99.90
2022-12-01T07:09:59.777Z,99.90
2022-12-01T07:13:01.954Z,99.90
2022-12-01T07:16:05.247Z,99.90
2022-12-01T07:19:07.826Z,99.90
2022-12-01T07:22:10.658Z,99.90
2022-12-01T07:25:12.700Z,99.90
2022-12-01T07:28:15.865Z,99.90
2022-12-01T07:31:20.341Z,99.90
2022-12-01T07:34:22.437Z,99.90
2022-12-01T07:37:24.635Z,99.90
2022-12-01T07:40:26.792Z,99.90
2022-12-01T07:43:32.087Z,99.90
2022-12-01T07:46:34.143Z,99.90
2022-12-01T07:49:38.188Z,99.90
2022-12-01T07:52:40.492Z,99.90
2022-12-01T07:55:49.602Z,99.90
2022-12-01T07:58:51.688Z,99.90
2022-12-01T08:01:54.451Z,99.90
2022-12-01T08:04:56.768Z,99.90
2022-12-01T08:07:59.317Z,99.90
2022-12-01T08:11:04.049Z,99.90
2022-12-01T08:14:06.161Z,99.90
2022-12-01T08:17:08.227Z,99.90
2022-12-01T08:20:10.635Z,99.90
2022-12-01T08:23:12.767Z,99.90
2022-12-01T08:26:18.171Z,99.90
2022-12-01T08:29:20.639Z,99.90
2022-12-01T08:32:22.860Z,99.90
2022-12-01T08:35:26.104Z,99.90
2022-12-01T08:38:28.255Z,99.90
2022-12-01T08:41:31.708Z,99.90
2022-12-01T08:44:33.801Z,99.90
2022-12-01T08:47:36.082Z,99.30
2022-12-01T08:50:38.289Z,99.20
2022-12-01T08:53:45.666Z,96.10
2022-12-01T08:56:48.034Z,95.30
2022-12-01T08:59:51.440Z,94.80
2022-12-01T09:02:53.615Z,93.90
2022-12-01T09:06:01.285Z,93.60
2022-12-01T09:09:03.352Z,91.60
2022-12-01T09:12:07.640Z,91.60
2022-12-01T09:15:10.214Z,90.50
2022-12-01T09:18:12.230Z,89.90
2022-12-01T09:21:21.448Z,86.20
2022-12-01T09:24:23.625Z,86.60
2022-12-01T09:27:25.689Z,86.70
2022-12-01T09:30:27.732Z,86.80
2022-12-01T09:33:29.699Z,83.10
2022-12-01T09:36:33.851Z,81.80
2022-12-01T09:39:35.813Z,79.40
2022-12-01T09:42:38.788Z,82.20
2022-12-01T09:45:45.822Z,81.10
2022-12-01T09:48:50.954Z,77.40
2022-12-01T09:51:54.816Z,75.40
2022-12-01T09:54:59.516Z,75.30
2022-12-01T09:58:04.490Z,75.70
2022-12-01T10:01:06.660Z,74.60
2022-12-01T10:04:25.148Z,74.00
2022-12-01T10:07:38.922Z,74.80
2022-12-01T10:10:45.984Z,74.90
2022-12-01T10:13:48.016Z,73.60
2022-12-01T10:17:01.931Z,71.40
2022-12-01T10:20:26.891Z,72.40
2022-12-01T10:23:53.445Z,73.70
2022-12-01T10:26:55.825Z,76.20
2022-12-01T10:30:10.159Z,73.40
2022-12-01T10:33:24.606Z,75.60
2022-12-01T10:36:28.239Z,75.90
2022-12-01T10:39:40.679Z,73.10
2022-12-01T10:42:48.433Z,74.40
2022-12-01T10:45:51.202Z,74.60
2022-12-01T10:48:58.946Z,73.00
2022-12-01T10:52:00.948Z,73.50
2022-12-01T10:55:06.530Z,74.30
2022-12-01T10:58:17.934Z,73.50
2022-12-01T11:01:24.921Z,72.80
2022-12-01T11:04:47.514Z,71.00
2022-12-01T11:07:51.022Z,74.10
2022-12-01T11:10:53.165Z,72.20
2022-12-01T11:13:56.935Z,71.60
2022-12-01T11:17:25.457Z,70.50
2022-12-01T11:20:40.866Z,71.90
2022-12-01T11:23:49.169Z,73.60
2022-12-01T11:26:51.228Z,73.90
2022-12-01T11:29:57.177Z,72.90
2022-12-01T11:33:01.618Z,72.50
2022-12-01T11:36:03.979Z,73.60
2022-12-01T11:39:06.084Z,74.30
2022-12-01T11:42:28.751Z,72.80
2022-12-01T11:45:40.247Z,75.70
2022-12-01T11:48:58.455Z,75.50
2022-12-01T11:52:24.143Z,80.90
2022-12-01T11:55:28.649Z,84.20
2022-12-01T11:58:30.633Z,88.10
2022-12-01T12:02:05.180Z,90.60
2022-12-01T12:05:07.343Z,91.40
2022-12-01T12:08:18.118Z,92.40
2022-12-01T12:11:26.755Z,93.10
2022-12-01T12:14:36.484Z,93.70
2022-12-01T12:18:10.326Z,93.90
2022-12-01T12:21:31.011Z,94.70
2022-12-01T12:25:11.683Z,95.20
2022-12-01T12:28:23.627Z,95.80
2022-12-01T12:31:44.400Z,96.30
2022-12-01T12:35:11.881Z,96.80
2022-12-01T12:38:37.631Z,97.10
2022-12-01T12:41:53.523Z,96.90
2022-12-01T12:45:21.892Z,96.60
2022-12-01T12:48:50.829Z,96.60
2022-12-01T12:52:26.725Z,96.40
2022-12-01T12:55:59.428Z,97.00
2022-12-01T12:59:07.358Z,96.40
2022-12-01T13:02:15.829Z,97.20
2022-12-01T13:05:41.955Z,98.00
2022-12-01T13:08:56.288Z,97.50
2022-12-01T13:12:27.080Z,97.50
2022-12-01T13:15:30.693Z,98.10
2022-12-01T13:18:36.874Z,97.30
2022-12-01T13:21:46.775Z,97.70
2022-12-01T13:24:49.087Z,97.30
2022-12-01T13:27:52.851Z,96.70
2022-12-01T13:31:21.230Z,96.80
2022-12-01T13:34:46.327Z,96.90
2022-12-01T13:37:48.611Z,97.10
2022-12-01T13:41:13.028Z,96.90
2022-12-01T13:44:28.429Z,96.90
2022-12-01T13:47:39.261Z,96.70
2022-12-01T13:50:44.148Z,96.70
2022-12-01T13:54:05.908Z,96.90
2022-12-01T13:57:14.102Z,96.90
2022-12-01T14:00:31.335Z,96.80
2022-12-01T14:03:39.679Z,97.00
2022-12-01T14:06:49.675Z,96.60
2022-12-01T14:09:54.780Z,96.90
2022-12-01T14:13:00.122Z,96.50
2022-12-01T14:16:04.167Z,97.10
2022-12-01T14:19:06.404Z,97.50
2022-12-01T14:22:33.190Z,97.20
2022-12-01T14:25:35.307Z,97.20
2022-12-01T14:28:55.589Z,97.30
2022-12-01T14:32:09.590Z,97.80
2022-12-01T14:35:13.995Z,96.90
2022-12-01T14:38:16.598Z,97.10
2022-12-01T14:41:25.282Z,97.10
2022-12-01T14:44:34.124Z,96.70
2022-12-01T14:48:04.371Z,97.30
2022-12-01T14:51:16.598Z,97.00
2022-12-01T14:54:24.894Z,97.50
2022-12-01T14:57:37.826Z,97.50
2022-12-01T15:01:14.832Z,97.70
2022-12-01T15:04:17.055Z,97.70
2022-12-01T15:07:22.986Z,97.60
2022-12-01T15:10:35.320Z,97.60
2022-12-01T15:13:50.541Z,97.80
2022-12-01T15:16:52.887Z,97.70
2022-12-01T15:19:55.042Z,97.60
2022-12-01T15:22:59.560Z,97.80
2022-12-01T15:26:01.650Z,97.50
2022-12-01T15:29:21.291Z,97.40
2022-12-01T15:32:25.150Z,97.50
2022-12-01T15:35:27.508Z,97.40
2022-12-01T15:38:35.802Z,97.60
2022-12-01T15:41:41.571Z,97.60
2022-12-01T15:44:44.814Z,97.80
2022-12-01T15:47:55.884Z,97.90
2022-12-01T15:51:18.423Z,97.80
2022-12-01T15:54:24.895Z,97.90
2022-12-01T15:57:28.248Z,98.00
2022-12-01T16:00:30.236Z,97.90
2022-12-01T16:03:43.599Z,98.10
2022-12-01T16:06:59.531Z,98.20
2022-12-01T16:10:05.256Z,98.40
2022-12-01T16:13:45.284Z,98.20
2022-12-01T16:16:48.714Z,98.30
2022-12-01T16:20:47.255Z,98.40
2022-12-01T16:24:01.622Z,98.20
2022-12-01T16:27:17.161Z,98.30
2022-12-01T16:30:25.619Z,98.50
2022-12-01T16:33:29.230Z,98.70
2022-12-01T16:36:31.280Z,98.80
2022-12-01T16:39:33.311Z,98.90
2022-12-01T16:42:39.607Z,98.80
2022-12-01T16:45:43.694Z,99.00
2022-12-01T16:48:45.828Z,99.20
2022-12-01T16:51:55.813Z,99.20
2022-12-01T16:54:58.976Z,99.30
2022-12-01T16:58:01.295Z,99.30
2022-12-01T17:01:05.814Z,99.50
2022-12-01T17:04:08.079Z,99.50
2022-12-01T17:07:11.375Z,99.50
2022-12-01T17:10:14.838Z,99.50
2022-12-01T17:13:18.676Z,99.50
2022-12-01T17:16:20.718Z,99.60
2022-12-01T17:19:22.801Z,99.70
2022-12-01T17:22:25.161Z,99.90
2022-12-01T17:25:30.039Z,99.90
2022-12-01T17:28:32.217Z,99.90
2022-12-01T17:31:34.323Z,99.90
2022-12-01T17:34:36.395Z,99.90
2022-12-01T17:37:39.978Z,99.90
2022-12-01T17:40:43.212Z,99.90
2022-12-01T17:43:45.260Z,99.90
2022-12-01T17:46:47.359Z,99.90
2022-12-01T17:49:49.463Z,99.90
2022-12-01T17:52:51.550Z,99.90
2022-12-01T17:55:54.902Z,99.90
2022-12-01T17:58:56.937Z,99.90
2022-12-01T18:01:59.164Z,99.90
2022-12-01T18:05:01.402Z,99.90
2022-12-01T18:08:03.741Z,99.90
2022-12-01T18:11:08.159Z,99.90
2022-12-01T18:14:11.243Z,99.90
2022-12-01T18:17:13.304Z,99.90
2022-12-01T18:20:15.377Z,99.90
2022-12-01T18:23:17.883Z,99.90
2022-12-01T18:26:22.030Z,99.90
2022-12-01T18:29:26.010Z,99.90
2022-12-01T18:32:28.292Z,99.90
2022-12-01T18:35:31.916Z,99.90
2022-12-01T18:38:34.196Z,99.90
2022-12-01T18:41:37.016Z,99.90
2022-12-01T18:44:39.044Z,99.90
2022-12-01T18:47:41.043Z,99.90
2022-12-01T18:50:43.017Z,99.90
2022-12-01T18:53:45.568Z,99.90
2022-12-01T18:56:52.829Z,99.90
2022-12-01T18:59:54.897Z,99.90
2022-12-01T19:02:57.233Z,99.90
2022-12-01T19:05:59.468Z,99.90
2022-12-01T19:09:03.809Z,99.90
2022-12-01T19:12:06.164Z,99.90
2022-12-01T19:15:08.819Z,99.90
2022-12-01T19:18:10.852Z,99.90
2022-12-01T19:21:16.122Z,99.90
2022-12-01T19:24:18.255Z,99.90
2022-12-01T19:27:20.239Z,99.90
2022-12-01T19:30:22.264Z,99.90
2022-12-01T19:33:24.324Z,99.90
2022-12-01T19:36:27.983Z,99.90
2022-12-01T19:39:29.971Z,99.90
2022-12-01T19:42:32.047Z,99.90
2022-12-01T19:45:37.555Z,99.90
2022-12-01T19:48:39.606Z,99.90
2022-12-01T19:51:41.805Z,99.90
2022-12-01T19:54:43.895Z,99.90
2022-12-01T19:57:50.786Z,99.90
2022-12-01T20:00:52.821Z,99.90
2022-12-01T20:03:55.913Z,99.90
2022-12-01T20:06:59.006Z,99.90
2022-12-01T20:10:01.015Z,99.90
2022-12-01T20:13:03.120Z,99.90
2022-12-01T20:16:08.391Z,99.90
2022-12-01T20:19:10.974Z,99.90
2022-12-01T20:22:12.984Z,99.90
2022-12-01T20:25:14.991Z,99.90
2022-12-01T20:28:16.954Z,99.90
2022-12-01T20:31:25.205Z,99.90
2022-12-01T20:34:31.088Z,99.90
2022-12-01T20:37:34.319Z,99.90
2022-12-01T20:40:36.403Z,99.90
2022-12-01T20:43:38.539Z,99.90
2022-12-01T20:46:41.169Z,99.90
2022-12-01T20:49:43.230Z,99.90
2022-12-01T20:52:46.349Z,99.90
2022-12-01T20:55:49.572Z,99.90
2022-12-01T20:58:52.909Z,99.90
2022-12-01T21:01:55.549Z,99.90
2022-12-01T21:04:59.187Z,99.90
2022-12-01T21:08:02.536Z,99.90
2022-12-01T21:11:16.394Z,99.90
2022-12-01T21:14:23.461Z,99.90
2022-12-01T21:17:31.296Z,99.90
2022-12-01T21:20:39.378Z,99.90
2022-12-01T21:23:41.400Z,99.90
2022-12-01T21:26:59.304Z,99.90
2022-12-01T21:30:01.676Z,99.90
2022-12-01T21:33:19.280Z,99.90
2022-12-01T21:36:22.864Z,99.90
2022-12-01T21:39:26.546Z,99.90
2022-12-01T21:42:31.868Z,99.90
2022-12-01T21:45:34.295Z,99.90
2022-12-01T21:48:36.918Z,99.90
2022-12-01T21:51:38.946Z,99.90
2022-12-01T21:54:41.148Z,99.90
2022-12-01T21:57:44.818Z,99.90
2022-12-01T22:00:46.863Z,99.90
2022-12-01T22:03:49.694Z,99.90
2022-12-01T22:06:55.639Z,99.90
2022-12-01T22:09:58.391Z,99.90
2022-12-01T22:13:00.403Z,99.90
2022-12-01T22:16:02.553Z,99.90
2022-12-01T22:19:16.284Z,99.90
2022-12-01T22:22:26.674Z,99.90
2022-12-01T22:25:30.275Z,99.90
2022-12-01T22:28:33.292Z,99.90
2022-12-01T22:31:35.409Z,99.90
2022-12-01T22:34:38.223Z,99.90
2022-12-01T22:37:48.999Z,99.90
2022-12-01T22:40:58.407Z,99.90
2022-12-01T22:44:13.203Z,99.90
2022-12-01T22:47:15.827Z,99.90
2022-12-01T22:50:29.990Z,99.90
2022-12-01T22:53:32.084Z,99.90
2022-12-01T22:57:01.874Z,99.90
2022-12-01T23:00:27.303Z,99.90
2022-12-01T23:03:29.219Z,99.90
2022-12-01T23:07:14.846Z,99.90
2022-12-01T23:10:18.289Z,99.90
2022-12-01T23:13:22.512Z,99.90
2022-12-01T23:16:25.491Z,99.90
2022-12-01T23:19:27.563Z,99.90
2022-12-01T23:22:29.640Z,99.90
2022-12-01T23:25:35.209Z,99.90
2022-12-01T23:28:41.589Z,99.90
2022-12-01T23:31:44.165Z,99.90
2022-12-01T23:34:46.737Z,99.90
2022-12-01T23:37:48.869Z,99.90
2022-12-01T23:40:53.384Z,99.90
2022-12-01T23:43:59.173Z,99.90
2022-12-01T23:47:01.372Z,99.90
2022-12-01T23:50:12.196Z,99.90
2022-12-01T23:53:25.288Z,99.90
2022-12-01T23:56:30.719Z,99.90
2022-12-01T23:59:32.945Z,99.90
